Time;durP1;ratioP1;P1;durP2;ratioP2;P2;SDS_P1;SDS_P2;PMS_P1;PMS_P2;Temp;Humidity;BMP_temperature;BMP_pressure;BME280_temperature;BME280_humidity;BME280_pressure;Samples;Min_cycle;Max_cycle;Signal;HPM_P1;HPM_P2
2023/12/16 00:00:02;;;;;;;18.65;3.72;;;;;;;;;;5077079;28;20254;-33
2023/12/16 00:02:27;;;;;;;14.18;2.95;;;;;;;;;;5076381;28;20044;-33
2023/12/16 00:04:52;;;;;;;16.23;3.03;;;;;;;;;;5076899;28;20017;-33
2023/12/16 00:07:17;;;;;;;14.48;2.72;;;;;;;;;;5077481;28;20335;-33
2023/12/16 00:09:43;;;;;;;15.80;3.10;;;;;;;;;;5076365;28;20101;-33
2023/12/16 00:12:08;;;;;;;12.07;2.88;;;;;;;;;;5076173;28;20247;-33
2023/12/16 00:14:35;;;;;;;16.92;2.78;;;;;;;;;;5076356;28;20049;-33
2023/12/16 00:17:00;;;;;;;15.15;3.25;;;;;;;;;;5076455;28;20078;-33
2023/12/16 00:19:25;;;;;;;14.43;2.77;;;;;;;;;;5076182;28;20020;-33
2023/12/16 00:21:50;;;;;;;17.83;3.13;;;;;;;;;;5076500;28;20271;-33
2023/12/16 00:24:15;;;;;;;12.20;3.00;;;;;;;;;;5076011;28;20028;-33
2023/12/16 00:26:41;;;;;;;17.37;3.23;;;;;;;;;;5076026;28;20311;-33
2023/12/16 00:29:06;;;;;;;15.70;2.88;;;;;;;;;;5075031;28;20255;-33
2023/12/16 00:31:31;;;;;;;14.10;3.25;;;;;;;;;;5075971;28;20027;-32
2023/12/16 00:33:56;;;;;;;17.20;3.00;;;;;;;;;;5076422;28;20024;-33
2023/12/16 00:36:21;;;;;;;21.55;3.22;;;;;;;;;;5076157;28;20330;-37
2023/12/16 00:38:47;;;;;;;12.63;2.97;;;;;;;;;;5076310;28;20016;-32
2023/12/16 00:41:12;;;;;;;18.03;3.00;;;;;;;;;;5076028;28;20012;-33
2023/12/16 00:43:38;;;;;;;16.57;3.47;;;;;;;;;;5075561;28;20275;-32
2023/12/16 00:46:03;;;;;;;14.30;3.10;;;;;;;;;;5075473;28;20250;-32
2023/12/16 00:48:28;;;;;;;10.73;2.80;;;;;;;;;;5076166;28;20013;-33
2023/12/16 00:50:54;;;;;;;13.20;2.60;;;;;;;;;;5075655;28;20440;-33
2023/12/16 00:53:19;;;;;;;15.93;2.65;;;;;;;;;;5075668;28;20654;-33
2023/12/16 00:55:45;;;;;;;13.53;3.23;;;;;;;;;;5075544;28;20066;-33
2023/12/16 00:58:10;;;;;;;9.43;2.37;;;;;;;;;;5075447;28;20290;-33
2023/12/16 01:00:35;;;;;;;19.10;3.20;;;;;;;;;;5075728;28;20706;-33
2023/12/16 01:03:00;;;;;;;13.83;2.50;;;;;;;;;;5075212;28;20574;-33
2023/12/16 01:05:26;;;;;;;12.73;2.53;;;;;;;;;;5076084;28;20266;-32
2023/12/16 01:07:51;;;;;;;12.15;2.40;;;;;;;;;;5075844;28;20063;-32
2023/12/16 01:10:16;;;;;;;10.85;2.40;;;;;;;;;;5075159;28;20455;-31
2023/12/16 01:12:41;;;;;;;12.33;2.30;;;;;;;;;;5074993;28;20024;-31
2023/12/16 01:15:07;;;;;;;10.70;2.30;;;;;;;;;;5076240;28;20255;-33
2023/12/16 01:17:32;;;;;;;14.73;2.47;;;;;;;;;;5075117;28;20326;-33
2023/12/16 01:19:57;;;;;;;10.82;3.25;;;;;;;;;;5075299;28;20052;-33
2023/12/16 01:22:22;;;;;;;10.80;2.20;;;;;;;;;;5075490;28;20021;-33
2023/12/16 01:24:48;;;;;;;12.40;2.40;;;;;;;;;;5074985;28;20383;-33
2023/12/16 01:27:13;;;;;;;15.17;2.60;;;;;;;;;;5074920;28;20258;-33
2023/12/16 01:29:38;;;;;;;15.63;2.77;;;;;;;;;;5074906;28;20753;-32
2023/12/16 01:32:03;;;;;;;14.43;2.60;;;;;;;;;;5074794;28;20267;-32
2023/12/16 01:34:28;;;;;;;13.85;2.33;;;;;;;;;;5074689;28;20275;-33
2023/12/16 01:36:54;;;;;;;19.58;2.88;;;;;;;;;;5075208;28;20025;-32
2023/12/16 01:39:19;;;;;;;12.33;2.60;;;;;;;;;;5075156;28;20020;-32
2023/12/16 01:41:44;;;;;;;13.93;2.60;;;;;;;;;;5074535;28;20261;-32
2023/12/16 01:44:09;;;;;;;14.53;2.47;;;;;;;;;;5073325;28;20028;-31
2023/12/16 01:46:35;;;;;;;13.83;2.50;;;;;;;;;;5074520;28;20749;-32
2023/12/16 01:49:01;;;;;;;13.40;2.65;;;;;;;;;;5075497;28;20267;-33
2023/12/16 01:51:26;;;;;;;21.92;3.55;;;;;;;;;;5074397;28;20025;-33
2023/12/16 01:53:51;;;;;;;12.45;2.80;;;;;;;;;;5074309;28;20456;-32
2023/12/16 01:56:17;;;;;;;13.45;2.63;;;;;;;;;;5073711;28;20021;-31
2023/12/16 01:58:42;;;;;;;15.38;2.75;;;;;;;;;;5074307;28;20074;-31
2023/12/16 02:01:07;;;;;;;17.13;3.00;;;;;;;;;;5074244;28;20020;-33
2023/12/16 02:03:32;;;;;;;15.27;2.90;;;;;;;;;;5073983;28;20060;-33
2023/12/16 02:05:58;;;;;;;16.08;3.22;;;;;;;;;;5074379;28;20250;-32
2023/12/16 02:08:23;;;;;;;14.52;3.03;;;;;;;;;;5074065;28;20024;-33
2023/12/16 02:10:48;;;;;;;17.33;3.58;;;;;;;;;;5074017;28;20047;-33
2023/12/16 02:13:13;;;;;;;19.40;3.10;;;;;;;;;;5074414;28;20339;-33
2023/12/16 02:15:38;;;;;;;12.30;3.10;;;;;;;;;;5073958;28;20467;-33
2023/12/16 02:18:04;;;;;;;18.45;3.13;;;;;;;;;;5073888;28;20254;-31
2023/12/16 02:20:29;;;;;;;11.77;2.80;;;;;;;;;;5074479;28;20129;-31
2023/12/16 02:22:55;;;;;;;13.30;3.10;;;;;;;;;;5074057;28;20016;-33
2023/12/16 02:25:20;;;;;;;15.48;3.05;;;;;;;;;;5073847;28;20262;-33
2023/12/16 02:27:46;;;;;;;13.70;3.42;;;;;;;;;;5074044;28;20020;-33
2023/12/16 02:30:11;;;;;;;16.10;2.90;;;;;;;;;;5073709;28;20418;-32
2023/12/16 02:32:36;;;;;;;17.15;3.10;;;;;;;;;;5074191;28;20028;-33
2023/12/16 02:35:02;;;;;;;17.00;3.08;;;;;;;;;;5073913;28;20020;-33
2023/12/16 02:37:27;;;;;;;19.88;3.58;;;;;;;;;;5073933;28;20470;-33
2023/12/16 02:39:52;;;;;;;20.65;3.10;;;;;;;;;;5074455;28;20008;-33
2023/12/16 02:42:17;;;;;;;16.65;3.30;;;;;;;;;;5073820;28;20031;-31
2023/12/16 02:44:42;;;;;;;15.88;3.08;;;;;;;;;;5074080;28;20024;-33
2023/12/16 02:47:08;;;;;;;12.93;3.03;;;;;;;;;;5073575;28;20065;-33
2023/12/16 02:49:33;;;;;;;19.63;3.25;;;;;;;;;;5073406;28;20258;-33
2023/12/16 02:51:58;;;;;;;16.55;3.40;;;;;;;;;;5073784;28;20021;-32
2023/12/16 02:54:25;;;;;;;14.25;3.45;;;;;;;;;;5073379;28;20024;-33
2023/12/16 02:56:50;;;;;;;19.27;3.40;;;;;;;;;;5073459;28;20514;-33
2023/12/16 02:59:15;;;;;;;12.47;3.30;;;;;;;;;;5073426;28;20012;-32
2023/12/16 03:01:40;;;;;;;22.20;5.73;;;;;;;;;;5073249;28;20278;-31
2023/12/16 03:04:06;;;;;;;14.23;3.55;;;;;;;;;;5073719;28;20255;-33
2023/12/16 03:06:31;;;;;;;20.10;3.90;;;;;;;;;;5073920;28;20368;-32
2023/12/16 03:08:56;;;;;;;12.07;3.65;;;;;;;;;;5076468;28;20016;-33
2023/12/16 03:11:21;;;;;;;20.00;4.73;;;;;;;;;;5077682;28;20482;-31
2023/12/16 03:13:46;;;;;;;22.17;4.40;;;;;;;;;;5077639;28;20278;-33
2023/12/16 03:16:11;;;;;;;18.97;4.17;;;;;;;;;;5077340;28;20772;-33
2023/12/16 03:18:37;;;;;;;13.13;3.50;;;;;;;;;;5077550;28;20265;-33
2023/12/16 03:21:06;;;;;;;15.70;3.90;;;;;;;;;;5077472;28;20013;-33
2023/12/16 03:23:31;;;;;;;16.75;3.97;;;;;;;;;;5077182;28;20028;-32
2023/12/16 03:25:56;;;;;;;17.13;3.47;;;;;;;;;;5077368;28;20061;-32
2023/12/16 03:28:22;;;;;;;15.25;4.60;;;;;;;;;;5077171;28;20029;-32
2023/12/16 03:30:47;;;;;;;21.20;4.17;;;;;;;;;;5077496;28;20118;-33
2023/12/16 03:33:12;;;;;;;15.77;3.60;;;;;;;;;;5076916;28;20271;-33
2023/12/16 03:35:37;;;;;;;16.13;3.97;;;;;;;;;;5076994;28;20092;-32
2023/12/16 03:38:02;;;;;;;21.73;4.13;;;;;;;;;;5076956;28;20247;-32
2023/12/16 03:40:29;;;;;;;20.80;4.13;;;;;;;;;;5077284;28;20320;-33
2023/12/16 03:42:54;;;;;;;16.70;4.10;;;;;;;;;;5076836;28;20013;-33
2023/12/16 03:45:19;;;;;;;16.35;4.10;;;;;;;;;;5076806;28;20058;-33
2023/12/16 03:47:46;;;;;;;21.02;4.15;;;;;;;;;;5077296;28;20020;-33
2023/12/16 03:50:11;;;;;;;19.13;4.90;;;;;;;;;;5077265;28;20024;-33
2023/12/16 03:52:36;;;;;;;17.17;4.03;;;;;;;;;;5076926;28;20467;-33
2023/12/16 03:55:02;;;;;;;18.67;4.15;;;;;;;;;;5076846;28;20020;-33
2023/12/16 03:57:29;;;;;;;22.92;4.60;;;;;;;;;;5076576;28;20460;-33
2023/12/16 03:59:54;;;;;;;18.63;5.68;;;;;;;;;;5076546;28;20119;-32
2023/12/16 04:02:19;;;;;;;18.65;4.55;;;;;;;;;;5076524;28;20131;-32
2023/12/16 04:04:45;;;;;;;15.77;4.18;;;;;;;;;;5076418;28;20017;-32
2023/12/16 04:07:10;;;;;;;14.37;4.13;;;;;;;;;;5076430;28;20519;-34
2023/12/16 04:09:35;;;;;;;19.17;4.80;;;;;;;;;;5076643;28;20262;-33
2023/12/16 04:12:00;;;;;;;13.87;4.03;;;;;;;;;;5076233;28;20338;-33
2023/12/16 04:14:25;;;;;;;20.73;4.50;;;;;;;;;;5076168;28;20298;-33
2023/12/16 04:16:50;;;;;;;22.08;5.18;;;;;;;;;;5076242;28;20456;-33
2023/12/16 04:19:16;;;;;;;15.63;4.60;;;;;;;;;;5075590;28;20017;-33
2023/12/16 04:21:41;;;;;;;26.27;5.10;;;;;;;;;;5076686;28;20024;-33
2023/12/16 04:24:06;;;;;;;20.90;4.43;;;;;;;;;;5076119;28;20320;-33
2023/12/16 04:26:31;;;;;;;19.77;4.50;;;;;;;;;;5076062;28;20282;-33
2023/12/16 04:28:56;;;;;;;18.35;4.28;;;;;;;;;;5076292;28;20028;-33
2023/12/16 04:31:22;;;;;;;19.80;5.10;;;;;;;;;;5076546;28;20031;-33
2023/12/16 04:33:48;;;;;;;25.58;5.30;;;;;;;;;;5075819;28;20769;-33
2023/12/16 04:36:14;;;;;;;18.10;4.70;;;;;;;;;;5076155;28;20519;-33
2023/12/16 04:38:39;;;;;;;15.35;4.30;;;;;;;;;;5076141;28;20101;-34
2023/12/16 04:41:04;;;;;;;20.48;5.30;;;;;;;;;;5075866;28;20467;-34
2023/12/16 04:43:30;;;;;;;11.45;4.10;;;;;;;;;;5075728;28;20021;-34
2023/12/16 04:45:55;;;;;;;19.45;4.70;;;;;;;;;;5076083;28;20020;-34
2023/12/16 04:48:20;;;;;;;13.57;4.30;;;;;;;;;;5075753;28;20020;-34
2023/12/16 04:50:45;;;;;;;24.30;5.03;;;;;;;;;;5075912;28;20276;-34
2023/12/16 04:53:10;;;;;;;25.10;4.37;;;;;;;;;;5075576;28;20016;-34
2023/12/16 04:55:36;;;;;;;18.90;4.37;;;;;;;;;;5075638;28;20251;-34
2023/12/16 04:58:01;;;;;;;23.02;4.45;;;;;;;;;;5075762;28;20294;-34
2023/12/16 05:00:26;;;;;;;20.25;4.45;;;;;;;;;;5075719;28;20024;-34
2023/12/16 05:02:51;;;;;;;20.30;5.28;;;;;;;;;;5075341;28;20078;-32
2023/12/16 05:05:17;;;;;;;20.40;4.85;;;;;;;;;;5075677;28;20085;-34
2023/12/16 05:07:42;;;;;;;22.67;4.30;;;;;;;;;;5075325;28;20020;-34
2023/12/16 05:10:10;;;;;;;22.83;4.88;;;;;;;;;;5075837;28;20270;-34
2023/12/16 05:12:36;;;;;;;17.30;4.38;;;;;;;;;;5075652;28;20340;-34
2023/12/16 05:15:02;;;;;;;18.23;4.53;;;;;;;;;;5075183;28;20042;-41
2023/12/16 05:17:27;;;;;;;25.92;5.18;;;;;;;;;;5075065;28;20050;-34
2023/12/16 05:19:52;;;;;;;17.93;4.80;;;;;;;;;;5075120;28;20013;-32
2023/12/16 05:22:17;;;;;;;26.23;5.23;;;;;;;;;;5075041;28;20330;-32
2023/12/16 05:24:42;;;;;;;18.77;4.43;;;;;;;;;;5075531;28;20254;-32
2023/12/16 05:27:08;;;;;;;19.88;4.78;;;;;;;;;;5075190;28;20290;-32
2023/12/16 05:29:33;;;;;;;17.80;5.17;;;;;;;;;;5074929;28;20502;-32
2023/12/16 05:31:58;;;;;;;22.23;4.80;;;;;;;;;;5075295;28;20262;-33
2023/12/16 05:34:23;;;;;;;17.27;4.82;;;;;;;;;;5074668;28;20266;-32
2023/12/16 05:36:50;;;;;;;24.52;5.22;;;;;;;;;;5074757;28;20487;-32
2023/12/16 05:39:15;;;;;;;20.40;5.68;;;;;;;;;;5074952;28;20028;-32
2023/12/16 05:41:41;;;;;;;21.27;4.60;;;;;;;;;;5074580;28;20016;-32
2023/12/16 05:44:06;;;;;;;21.53;4.70;;;;;;;;;;5074843;28;20262;-32
2023/12/16 05:46:31;;;;;;;19.67;4.20;;;;;;;;;;5074494;28;20255;-35
2023/12/16 05:48:56;;;;;;;20.97;5.80;;;;;;;;;;5074469;28;20028;-32
2023/12/16 05:51:21;;;;;;;19.33;4.18;;;;;;;;;;5074372;28;20270;-33
2023/12/16 05:53:47;;;;;;;21.93;4.90;;;;;;;;;;5075399;28;20096;-32
2023/12/16 05:56:13;;;;;;;19.17;4.40;;;;;;;;;;5074852;28;20262;-32
2023/12/16 05:58:38;;;;;;;21.42;4.63;;;;;;;;;;5074532;28;20044;-32
2023/12/16 06:01:03;;;;;;;21.70;4.90;;;;;;;;;;5074199;28;20090;-32
2023/12/16 06:03:29;;;;;;;24.98;4.95;;;;;;;;;;5074050;28;20634;-33
2023/12/16 06:05:54;;;;;;;19.40;4.57;;;;;;;;;;5074124;28;20028;-32
2023/12/16 06:08:19;;;;;;;16.98;4.10;;;;;;;;;;5074355;28;20801;-33
2023/12/16 06:10:44;;;;;;;19.85;4.28;;;;;;;;;;5074018;28;20379;-33
2023/12/16 06:13:10;;;;;;;21.00;4.35;;;;;;;;;;5073887;28;20023;-33
2023/12/16 06:15:35;;;;;;;18.90;4.73;;;;;;;;;;5074551;28;20020;-33
2023/12/16 06:18:03;;;;;;;22.73;4.97;;;;;;;;;;5073956;28;20717;-33
2023/12/16 06:20:29;;;;;;;28.25;4.72;;;;;;;;;;5074168;28;20255;-33
2023/12/16 06:22:54;;;;;;;24.60;4.90;;;;;;;;;;5073875;28;20474;-33
2023/12/16 06:25:19;;;;;;;20.00;4.33;;;;;;;;;;5073861;28;20020;-33
2023/12/16 06:27:44;;;;;;;20.33;4.00;;;;;;;;;;5073830;28;20255;-33
2023/12/16 06:30:10;;;;;;;17.42;4.63;;;;;;;;;;5073773;28;20250;-32
2023/12/16 06:32:35;;;;;;;26.30;4.57;;;;;;;;;;5073692;28;20468;-33
2023/12/16 06:35:01;;;;;;;20.48;4.10;;;;;;;;;;5074236;28;20444;-33
2023/12/16 06:37:26;;;;;;;20.27;4.10;;;;;;;;;;5073921;28;20418;-33
2023/12/16 06:39:51;;;;;;;21.27;4.05;;;;;;;;;;5073670;28;20070;-32
2023/12/16 06:42:17;;;;;;;17.38;3.60;;;;;;;;;;5073519;28;20020;-32
2023/12/16 06:44:42;;;;;;;23.55;4.60;;;;;;;;;;5073930;28;20016;-33
2023/12/16 06:47:07;;;;;;;19.80;4.40;;;;;;;;;;5073591;28;20017;-34
2023/12/16 06:49:33;;;;;;;21.67;4.70;;;;;;;;;;5073667;28;20028;-34
2023/12/16 06:51:58;;;;;;;19.43;4.00;;;;;;;;;;5073545;28;20103;-33
2023/12/16 06:54:23;;;;;;;16.23;4.83;;;;;;;;;;5073410;28;20829;-33
2023/12/16 06:56:48;;;;;;;31.48;4.45;;;;;;;;;;5073410;28;20255;-33
2023/12/16 06:59:13;;;;;;;31.63;5.07;;;;;;;;;;5073431;28;20024;-34
2023/12/16 07:01:38;;;;;;;24.33;3.93;;;;;;;;;;5073262;28;20036;-33
2023/12/16 07:04:05;;;;;;;25.10;4.30;;;;;;;;;;5073368;28;20308;-33
2023/12/16 07:06:30;;;;;;;24.02;4.35;;;;;;;;;;5073362;28;20039;-33
2023/12/16 07:08:55;;;;;;;21.73;4.10;;;;;;;;;;5073336;28;20103;-33
2023/12/16 07:11:20;;;;;;;23.87;3.83;;;;;;;;;;5073462;28;20254;-34
2023/12/16 07:13:46;;;;;;;25.33;5.00;;;;;;;;;;5073533;28;20811;-33
2023/12/16 07:16:14;;;;;;;16.50;4.00;;;;;;;;;;5073279;28;20471;-33
2023/12/16 07:18:39;;;;;;;21.40;5.50;;;;;;;;;;5073831;28;20265;-33
2023/12/16 07:21:05;;;;;;;20.67;3.73;;;;;;;;;;5073478;28;20410;-33
2023/12/16 07:23:33;;;;;;;22.42;4.05;;;;;;;;;;5071979;28;20279;-33
2023/12/16 07:25:58;;;;;;;22.10;4.35;;;;;;;;;;5073430;28;20017;-33
2023/12/16 07:28:23;;;;;;;20.00;4.13;;;;;;;;;;5073418;28;20416;-33
2023/12/16 07:30:48;;;;;;;29.07;4.97;;;;;;;;;;5073674;28;20303;-33
2023/12/16 07:33:14;;;;;;;20.83;3.72;;;;;;;;;;5073019;28;20278;-33
2023/12/16 07:35:40;;;;;;;25.75;4.15;;;;;;;;;;5072976;28;20379;-33
2023/12/16 07:38:06;;;;;;;18.10;4.22;;;;;;;;;;5073048;28;20031;-32
2023/12/16 07:40:31;;;;;;;24.00;4.25;;;;;;;;;;5073640;28;20017;-33
2023/12/16 07:42:57;;;;;;;22.98;4.30;;;;;;;;;;5072964;28;20352;-34
2023/12/16 07:45:22;;;;;;;21.42;4.20;;;;;;;;;;5073026;28;20016;-33
2023/12/16 07:47:47;;;;;;;24.00;4.13;;;;;;;;;;5073533;28;20028;-34
2023/12/16 07:50:16;;;;;;;20.13;3.80;;;;;;;;;;5073493;28;20071;-33
2023/12/16 07:52:41;;;;;;;21.98;3.72;;;;;;;;;;5073017;28;20772;-33
2023/12/16 07:55:06;;;;;;;27.87;4.53;;;;;;;;;;5074338;28;20016;-34
2023/12/16 07:57:32;;;;;;;20.23;3.85;;;;;;;;;;5076558;28;20271;-34
2023/12/16 07:59:57;;;;;;;15.43;3.60;;;;;;;;;;5076527;28;20150;-33
2023/12/16 08:02:22;;;;;;;20.30;3.65;;;;;;;;;;5076485;28;20132;-33
2023/12/16 08:04:49;;;;;;;18.80;3.67;;;;;;;;;;5076973;28;20025;-34
2023/12/16 08:07:14;;;;;;;17.13;4.05;;;;;;;;;;5075205;28;20278;-34
2023/12/16 08:09:39;;;;;;;20.02;4.20;;;;;;;;;;5076583;28;20031;-34
2023/12/16 08:12:05;;;;;;;19.73;4.07;;;;;;;;;;5076888;28;20028;-33
2023/12/16 08:14:30;;;;;;;23.15;4.22;;;;;;;;;;5076203;28;20731;-33
2023/12/16 08:16:56;;;;;;;19.52;3.72;;;;;;;;;;5076283;28;20095;-33
2023/12/16 08:19:21;;;;;;;18.65;4.00;;;;;;;;;;5075285;28;20111;-34
2023/12/16 08:21:46;;;;;;;28.42;5.10;;;;;;;;;;5076684;28;20021;-34
2023/12/16 08:24:11;;;;;;;21.63;4.07;;;;;;;;;;5076669;28;20029;-34
2023/12/16 08:26:36;;;;;;;25.57;3.97;;;;;;;;;;5076079;28;20273;-33
2023/12/16 08:29:02;;;;;;;19.85;3.60;;;;;;;;;;5076022;28;20255;-34
2023/12/16 08:31:27;;;;;;;17.33;3.80;;;;;;;;;;5076339;28;20422;-33
2023/12/16 08:33:53;;;;;;;20.40;3.53;;;;;;;;;;5075931;28;20024;-34
2023/12/16 08:36:18;;;;;;;23.73;4.07;;;;;;;;;;5076202;28;20092;-34
2023/12/16 08:38:44;;;;;;;18.88;4.30;;;;;;;;;;5075908;28;20016;-34
2023/12/16 08:41:10;;;;;;;19.30;3.70;;;;;;;;;;5076133;28;20459;-33
2023/12/16 08:43:35;;;;;;;16.95;3.95;;;;;;;;;;5075953;28;20095;-33
2023/12/16 08:46:02;;;;;;;16.90;4.72;;;;;;;;;;5075638;28;20077;-33
2023/12/16 08:48:27;;;;;;;23.10;4.07;;;;;;;;;;5075951;28;20024;-34
2023/12/16 08:50:53;;;;;;;16.80;3.70;;;;;;;;;;5074411;28;20394;-33
2023/12/16 08:53:18;;;;;;;27.45;4.00;;;;;;;;;;5076089;28;20389;-33
2023/12/16 08:55:43;;;;;;;29.77;4.03;;;;;;;;;;5074143;28;20016;-33
2023/12/16 08:58:08;;;;;;;15.50;3.67;;;;;;;;;;5075259;28;20112;-33
2023/12/16 09:00:33;;;;;;;16.30;4.03;;;;;;;;;;5075290;28;20110;-32
2023/12/16 09:02:59;;;;;;;23.33;3.90;;;;;;;;;;5075060;28;20136;-33
2023/12/16 09:05:26;;;;;;;21.00;3.80;;;;;;;;;;5074973;28;20718;-33
2023/12/16 09:07:52;;;;;;;24.55;4.75;;;;;;;;;;5075390;28;20251;-33
2023/12/16 09:10:17;;;;;;;21.73;3.92;;;;;;;;;;5075521;28;20019;-34
2023/12/16 09:12:42;;;;;;;25.50;4.20;;;;;;;;;;5075173;28;20036;-34
2023/12/16 09:15:08;;;;;;;17.55;4.22;;;;;;;;;;5075093;28;20257;-34
2023/12/16 09:17:33;;;;;;;24.63;4.45;;;;;;;;;;5075340;28;20104;-33
2023/12/16 09:19:58;;;;;;;27.13;5.80;;;;;;;;;;5074621;28;20404;-34
2023/12/16 09:22:23;;;;;;;23.70;5.00;;;;;;;;;;5072971;28;20259;-34
2023/12/16 09:24:49;;;;;;;16.92;4.40;;;;;;;;;;5073019;28;20266;-34
2023/12/16 09:27:14;;;;;;;24.58;5.53;;;;;;;;;;5072862;28;20017;-34
2023/12/16 09:29:39;;;;;;;26.73;4.95;;;;;;;;;;5072906;28;20028;-35
2023/12/16 09:32:05;;;;;;;29.52;5.60;;;;;;;;;;5072813;28;20379;-35
2023/12/16 09:34:30;;;;;;;19.95;4.63;;;;;;;;;;5072492;28;20028;-34
2023/12/16 09:36:55;;;;;;;19.13;5.13;;;;;;;;;;5072579;28;20017;-34
2023/12/16 09:39:22;;;;;;;22.87;5.17;;;;;;;;;;5072533;28;20564;-33
2023/12/16 09:41:48;;;;;;;21.83;4.93;;;;;;;;;;5072792;28;20614;-34
2023/12/16 09:44:16;;;;;;;26.58;4.55;;;;;;;;;;5072669;28;20020;-33
2023/12/16 09:46:42;;;;;;;24.77;4.93;;;;;;;;;;5072433;28;20028;-38
2023/12/16 09:49:07;;;;;;;21.50;4.40;;;;;;;;;;5072416;28;20016;-33
2023/12/16 09:51:32;;;;;;;21.55;5.03;;;;;;;;;;5072079;28;20104;-33
2023/12/16 09:53:58;;;;;;;30.95;5.20;;;;;;;;;;5074313;28;20021;-33
2023/12/16 09:56:27;;;;;;;26.48;5.53;;;;;;;;;;5074739;28;20469;-33
2023/12/16 09:58:53;;;;;;;28.25;6.68;;;;;;;;;;5074071;28;20009;-33
2023/12/16 10:01:18;;;;;;;20.83;5.35;;;;;;;;;;5074176;28;20031;-33
2023/12/16 10:03:45;;;;;;;26.92;5.95;;;;;;;;;;5073967;28;20181;-33
2023/12/16 10:06:10;;;;;;;26.02;5.72;;;;;;;;;;5074106;28;20024;-33
2023/12/16 10:08:41;;;;;;;30.23;7.13;;;;;;;;;;5074586;28;20341;-33
2023/12/16 10:11:07;;;;;;;27.08;6.57;;;;;;;;;;5074406;28;20062;-34
2023/12/16 10:13:32;;;;;;;29.33;6.80;;;;;;;;;;5074205;28;20048;-34
2023/12/16 10:15:58;;;;;;;31.58;7.55;;;;;;;;;;5073981;28;20013;-34
2023/12/16 10:18:25;;;;;;;36.85;6.90;;;;;;;;;;5072239;28;20036;-33
2023/12/16 10:20:50;;;;;;;34.10;6.35;;;;;;;;;;5073843;28;20017;-33
2023/12/16 10:23:15;;;;;;;33.17;7.03;;;;;;;;;;5074006;28;20027;-33
2023/12/16 10:25:40;;;;;;;29.87;6.63;;;;;;;;;;5073730;28;20340;-33
2023/12/16 10:28:06;;;;;;;29.13;7.53;;;;;;;;;;5073743;28;20334;-34
2023/12/16 10:30:31;;;;;;;35.42;7.15;;;;;;;;;;5073900;28;20483;-33
2023/12/16 10:32:57;;;;;;;41.78;8.63;;;;;;;;;;5073779;28;20020;-34
2023/12/16 10:35:23;;;;;;;32.88;8.50;;;;;;;;;;5073865;28;20024;-34
2023/12/16 10:37:49;;;;;;;36.53;8.82;;;;;;;;;;5073548;28;20453;-34
2023/12/16 10:40:15;;;;;;;38.67;8.45;;;;;;;;;;5073466;28;20021;-34
2023/12/16 10:42:41;;;;;;;32.55;9.35;;;;;;;;;;5073454;28;20119;-34
2023/12/16 10:45:06;;;;;;;35.47;8.20;;;;;;;;;;5072984;28;20105;-33
2023/12/16 10:47:32;;;;;;;34.40;8.95;;;;;;;;;;5071852;28;20258;-33
2023/12/16 10:50:01;;;;;;;32.45;8.45;;;;;;;;;;5073276;28;20103;-33
2023/12/16 10:52:27;;;;;;;31.15;9.18;;;;;;;;;;5071765;28;20031;-34
2023/12/16 10:54:59;;;;;;;33.45;9.15;;;;;;;;;;5071743;28;20025;-34
2023/12/16 10:57:24;;;;;;;29.30;9.43;;;;;;;;;;5073330;28;20047;-34
2023/12/16 11:00:04;;;;;;;48.80;9.90;;;;;;;;;;5073204;28;20414;-34
2023/12/16 11:02:31;;;;;;;35.08;9.05;;;;;;;;;;5073073;28;20297;-34
2023/12/16 11:05:07;;;;;;;29.17;9.27;;;;;;;;;;5072987;28;20025;-34
2023/12/16 11:07:35;;;;;;;29.60;10.15;;;;;;;;;;5073088;28;20020;-34
2023/12/16 11:10:01;;;;;;;28.15;9.20;;;;;;;;;;5072885;28;20024;-34
2023/12/16 11:12:26;;;;;;;30.35;8.43;;;;;;;;;;5072680;28;20372;-34
2023/12/16 11:14:54;;;;;;;20.65;7.70;;;;;;;;;;5073189;28;20033;-34
2023/12/16 11:17:38;;;;;;;22.58;8.10;;;;;;;;;;5073229;28;20024;-34
2023/12/16 11:20:06;;;;;;;22.17;8.13;;;;;;;;;;5073536;28;20099;-34
2023/12/16 11:22:31;;;;;;;23.77;7.35;;;;;;;;;;5072812;28;20359;-34
2023/12/16 11:24:57;;;;;;;24.63;8.18;;;;;;;;;;5073389;28;20027;-34
2023/12/16 11:27:22;;;;;;;22.70;7.97;;;;;;;;;;5073130;28;20126;-34
2023/12/16 11:29:47;;;;;;;25.63;8.30;;;;;;;;;;5075422;28;20028;-34
2023/12/16 11:32:13;;;;;;;24.80;8.10;;;;;;;;;;5077249;28;20021;-34
2023/12/16 11:34:38;;;;;;;19.85;8.20;;;;;;;;;;5077059;28;20023;-34
2023/12/16 11:37:03;;;;;;;20.98;7.57;;;;;;;;;;5076944;28;20088;-34
2023/12/16 11:39:42;;;;;;;26.52;8.20;;;;;;;;;;5076566;28;20013;-34
2023/12/16 11:42:11;;;;;;;23.20;8.30;;;;;;;;;;5076249;28;20048;-34
2023/12/16 11:44:52;;;;;;;20.13;8.07;;;;;;;;;;5077097;28;20459;-34
2023/12/16 11:47:19;;;;;;;27.00;8.68;;;;;;;;;;5077004;28;20021;-34
2023/12/16 11:49:44;;;;;;;22.45;8.55;;;;;;;;;;5073687;28;20008;-34
2023/12/16 11:52:10;;;;;;;24.70;8.40;;;;;;;;;;5074746;28;20099;-34
2023/12/16 11:54:35;;;;;;;24.75;9.00;;;;;;;;;;5074655;28;20016;-35
2023/12/16 11:57:00;;;;;;;20.92;8.93;;;;;;;;;;5074725;28;20061;-33
2023/12/16 11:59:26;;;;;;;28.20;9.03;;;;;;;;;;5074833;28;20497;-33
2023/12/16 12:01:51;;;;;;;24.77;9.27;;;;;;;;;;5074813;28;20286;-33
2023/12/16 12:04:17;;;;;;;18.45;8.48;;;;;;;;;;5075896;28;20099;-33
2023/12/16 12:06:43;;;;;;;28.30;10.38;;;;;;;;;;5076055;28;20069;-33
2023/12/16 12:09:09;;;;;;;23.05;8.80;;;;;;;;;;5076747;28;20030;-33
2023/12/16 12:11:34;;;;;;;21.88;8.68;;;;;;;;;;5076535;28;20047;-33
2023/12/16 12:13:59;;;;;;;22.60;8.20;;;;;;;;;;5076123;28;20027;-34
2023/12/16 12:16:28;;;;;;;15.53;7.70;;;;;;;;;;5076141;28;20660;-33
2023/12/16 12:18:54;;;;;;;20.13;7.72;;;;;;;;;;5076330;28;20351;-33
2023/12/16 12:21:19;;;;;;;22.90;8.88;;;;;;;;;;5076740;28;20077;-33
2023/12/16 12:23:44;;;;;;;18.52;8.38;;;;;;;;;;5076408;28;20511;-33
2023/12/16 12:26:10;;;;;;;15.90;8.38;;;;;;;;;;5076321;28;20103;-33
2023/12/16 12:28:35;;;;;;;23.40;8.90;;;;;;;;;;5076252;28;20375;-33
2023/12/16 12:31:05;;;;;;;22.90;9.13;;;;;;;;;;5075904;28;20017;-34
2023/12/16 12:33:31;;;;;;;19.42;8.60;;;;;;;;;;5076496;28;20020;-33
2023/12/16 12:35:56;;;;;;;18.15;8.15;;;;;;;;;;5075741;28;20016;-33
2023/12/16 12:38:22;;;;;;;18.05;7.57;;;;;;;;;;5075822;28;20092;-33
2023/12/16 12:40:57;;;;;;;18.95;7.35;;;;;;;;;;5075350;28;20039;-33
2023/12/16 12:43:31;;;;;;;16.58;7.50;;;;;;;;;;5075795;28;20021;-32
2023/12/16 12:46:07;;;;;;;12.68;6.70;;;;;;;;;;5075664;28;20017;-33
2023/12/16 12:48:33;;;;;;;13.30;7.13;;;;;;;;;;5075450;28;20051;-33
2023/12/16 12:51:03;;;;;;;13.85;6.68;;;;;;;;;;5075336;28;20020;-33
2023/12/16 12:53:28;;;;;;;12.57;6.75;;;;;;;;;;5075567;28;20463;-33
2023/12/16 12:55:54;;;;;;;14.70;7.40;;;;;;;;;;5075485;28;20024;-33
2023/12/16 12:58:19;;;;;;;12.13;6.77;;;;;;;;;;5075929;28;20301;-34
2023/12/16 13:00:45;;;;;;;15.35;7.60;;;;;;;;;;5075720;28;20259;-33
2023/12/16 13:03:11;;;;;;;17.95;8.00;;;;;;;;;;5075107;28;20131;-33
2023/12/16 13:05:37;;;;;;;16.20;7.97;;;;;;;;;;5075388;28;20071;-33
2023/12/16 13:08:03;;;;;;;13.85;8.43;;;;;;;;;;5075840;28;20071;-33
2023/12/16 13:10:28;;;;;;;15.65;8.52;;;;;;;;;;5075428;28;20031;-33
2023/12/16 13:12:54;;;;;;;19.15;8.52;;;;;;;;;;5074847;28;20375;-33
2023/12/16 13:15:22;;;;;;;18.08;8.70;;;;;;;;;;5074900;28;20020;-33
2023/12/16 13:17:48;;;;;;;19.83;8.45;;;;;;;;;;5075036;28;20013;-33
2023/12/16 13:20:13;;;;;;;13.90;8.20;;;;;;;;;;5075568;28;20012;-33
2023/12/16 13:22:38;;;;;;;18.35;8.07;;;;;;;;;;5075453;28;20013;-33
2023/12/16 13:25:04;;;;;;;15.65;8.15;;;;;;;;;;5074608;28;20063;-33
2023/12/16 13:27:29;;;;;;;17.75;8.57;;;;;;;;;;5075101;28;20028;-34
2023/12/16 13:29:55;;;;;;;17.75;8.85;;;;;;;;;;5074630;28;20043;-34
2023/12/16 13:32:20;;;;;;;16.10;8.32;;;;;;;;;;5074780;28;20070;-34
2023/12/16 13:34:45;;;;;;;16.40;8.43;;;;;;;;;;5072433;28;20021;-34
2023/12/16 13:37:10;;;;;;;15.33;8.00;;;;;;;;;;5071970;28;20021;-34
2023/12/16 13:39:37;;;;;;;13.05;8.30;;;;;;;;;;5072276;28;20350;-34
2023/12/16 13:42:02;;;;;;;13.38;7.82;;;;;;;;;;5072260;28;20027;-34
2023/12/16 13:44:27;;;;;;;17.77;8.70;;;;;;;;;;5070912;28;20012;-33
2023/12/16 13:46:52;;;;;;;14.23;8.17;;;;;;;;;;5072239;28;20017;-33
2023/12/16 13:49:17;;;;;;;16.90;8.03;;;;;;;;;;5073265;28;20258;-34
2023/12/16 13:51:43;;;;;;;15.57;8.23;;;;;;;;;;5074247;28;20309;-34
2023/12/16 13:54:08;;;;;;;14.93;7.80;;;;;;;;;;5074268;28;20286;-34
2023/12/16 13:56:33;;;;;;;14.73;7.50;;;;;;;;;;5074534;28;20727;-34
2023/12/16 13:58:58;;;;;;;14.88;7.32;;;;;;;;;;5073022;28;20043;-35
2023/12/16 14:01:23;;;;;;;13.60;7.13;;;;;;;;;;5074812;28;20021;-34
2023/12/16 14:03:49;;;;;;;16.17;7.88;;;;;;;;;;5074006;28;20491;-34
2023/12/16 14:06:14;;;;;;;14.97;7.40;;;;;;;;;;5074109;28;20440;-34
2023/12/16 14:08:39;;;;;;;11.52;6.90;;;;;;;;;;5074026;28;20324;-34
2023/12/16 14:11:04;;;;;;;13.37;7.20;;;;;;;;;;5074375;28;20028;-34
2023/12/16 14:13:30;;;;;;;12.77;6.43;;;;;;;;;;5073899;28;20752;-34
2023/12/16 14:15:55;;;;;;;19.08;10.75;;;;;;;;;;5073949;28;20021;-34
2023/12/16 14:18:21;;;;;;;17.42;8.38;;;;;;;;;;5074132;28;20459;-34
2023/12/16 14:20:46;;;;;;;13.47;6.90;;;;;;;;;;5073799;28;20471;-34